Home > Products > Valid Products > TAF

000
FTUS44 KEPZ 272300
TAFDMN
TAF
KDMN 272337Z 2800/2824 27009KT P6SM SKC
     FM280600 29006KT P6SM SKC
     FM281800 27013G23KT P6SM SKC=



000
FTUS44 KEPZ 272300
TAFTCS
TAF
KTCS 272337Z 2800/2824 18010G17KT P6SM SKC
     FM280200 29007KT P6SM SKC
     FM281500 29010G18KT P6SM SKC=



000
FTUS44 KEPZ 272300
TAFELP
TAF
KELP 272337Z 2800/2824 22005KT P6SM SKC
     FM282000 29010G18KT P6SM SKC=



000
FTUS44 KEPZ 272300
TAFDMN
TAF
KDMN 272337Z 2800/2824 27009KT P6SM SKC
     FM280600 29006KT P6SM SKC
     FM281800 27013G23KT P6SM SKC=



000
FTUS44 KEPZ 272300
TAFTCS
TAF
KTCS 272337Z 2800/2824 18010G17KT P6SM SKC
     FM280200 29007KT P6SM SKC
     FM281500 29010G18KT P6SM SKC=



000
FTUS44 KEPZ 272300
TAFELP
TAF
KELP 272337Z 2800/2824 22005KT P6SM SKC
     FM282000 29010G18KT P6SM SKC=



000
FTUS44 KEPZ 271700 RRA
TAFTCS
TAF
KTCS 271751Z 2718/2818 VRB05KT P6SM SKC
     FM272000 15005KT P6SM SKC
     FM272200 18009KT P6SM SKC
     FM280500 31006KT P6SM SKC=



000
FTUS44 KEPZ 271700 RRA
TAFELP
TAF
KELP 271751Z 2718/2818 20005KT P6SM SKC
     FM272100 24008KT P6SM SKC
     FM280600 VRB04KT P6SM SKC=



000
FTUS44 KEPZ 271700 RRA
TAFDMN
TAF
KDMN 271751Z 2718/2818 VRB04KT P6SM SKC
     FM272200 25008KT P6SM SKC
     FM280500 29005KT P6SM SKC=



000
FTUS44 KEPZ 271700 RRA
TAFDMN
TAF
KDMN 271751Z 2718/2818 VRB04KT P6SM SKC
     FM272200 25008KT P6SM SKC
     FM280500 29005KT P6SM SKC=



000
FTUS44 KEPZ 271700 RRA
TAFELP
TAF
KELP 271751Z 2718/2818 20005KT P6SM SKC
     FM272100 24008KT P6SM SKC
     FM280600 VRB04KT P6SM SKC=



000
FTUS44 KEPZ 271700 RRA
TAFTCS
TAF
KTCS 271751Z 2718/2818 VRB05KT P6SM SKC
     FM272000 15005KT P6SM SKC
     FM272200 18009KT P6SM SKC
     FM280500 31006KT P6SM SKC=



000
FTUS44 KEPZ 271100
TAFDMN
TAF
KDMN 271124Z 2712/2812 29004KT P6SM SKC
     FM271900 22008KT P6SM SCT250
     FM280300 29005KT P6SM SKC=



000
FTUS44 KEPZ 271100
TAFTCS
TAF
KTCS 271124Z 2712/2812 VRB05KT P6SM FEW150
     FM271900 18009KT P6SM SKC
     FM280300 29005KT P6SM SKC=



000
FTUS44 KEPZ 271100
TAFELP
TAF
KELP 271124Z 2712/2812 VRB05KT P6SM FEW150
     FM271900 24008KT P6SM SKC
     FM280300 22005KT P6SM SKC=



000
FTUS44 KEPZ 270500
TAFTCS
TAF
KTCS 270520Z 2706/2806 31005KT P6SM FEW250
     FM271500 VRB03KT P6SM FEW250
     FM272200 18009KT P6SM FEW250=



000
FTUS44 KEPZ 270500
TAFELP
TAF
KELP 270520Z 2706/2806 VRB06KT P6SM SKC
     FM272000 24007KT P6SM SKC=



000
FTUS44 KEPZ 270500
TAFDMN
TAF
KDMN 270520Z 2706/2806 VRB04KT P6SM SKC
     FM272200 22008KT P6SM SCT250=



000
FTUS44 KEPZ 270500
TAFDMN
TAF
KDMN 270520Z 2706/2806 VRB04KT P6SM SKC
     FM272200 22008KT P6SM SCT250=



000
FTUS44 KEPZ 270500
TAFELP
TAF
KELP 270520Z 2706/2806 VRB06KT P6SM SKC
     FM272000 24007KT P6SM SKC=



000
FTUS44 KEPZ 270500
TAFTCS
TAF
KTCS 270520Z 2706/2806 31005KT P6SM FEW250
     FM271500 VRB03KT P6SM FEW250
     FM272200 18009KT P6SM FEW250=



000
FTUS44 KEPZ 262300
TAFDMN
TAF
KDMN 262339Z 2700/2724 VRB03KT P6SM SKC
     FM270300 30006KT P6SM SKC
     FM272100 22008KT P6SM SCT250=



000
FTUS44 KEPZ 262300
TAFTCS
TAF
KTCS 262339Z 2700/2724 VRB03KT P6SM SKC
     FM270600 31005KT P6SM FEW250=



000
FTUS44 KEPZ 262300
TAFELP
TAF
KELP 262339Z 2700/2724 VRB04KT P6SM SKC
     FM272000 24007KT P6SM SKC=



000
FTUS44 KEPZ 262300
TAFELP
TAF
KELP 262339Z 2700/2724 VRB04KT P6SM SKC
     FM272000 24007KT P6SM SKC=



000
FTUS44 KEPZ 262300
TAFTCS
TAF
KTCS 262339Z 2700/2724 VRB03KT P6SM SKC
     FM270600 31005KT P6SM FEW250=



000
FTUS44 KEPZ 262300
TAFDMN
TAF
KDMN 262339Z 2700/2724 VRB03KT P6SM SKC
     FM270300 30006KT P6SM SKC
     FM272100 22008KT P6SM SCT250=



000
FTUS44 KEPZ 261700
TAFDMN
TAF
KDMN 261731Z 2618/2718 07010G20KT P6SM FEW120 FEW250
     FM262100 15008KT P6SM FEW120 FEW250
     FM270300 30006KT P6SM FEW100 SCT250
     FM271500 18008KT P6SM SCT250=



000
FTUS44 KEPZ 261700
TAFTCS
TAF
KTCS 261731Z 2618/2718 07008KT P6SM FEW120 FEW250
     FM270000 23007KT P6SM FEW120 FEW250
     FM270600 29006KT P6SM FEW100 SCT250=



000
FTUS44 KEPZ 261700
TAFELP
TAF
KELP 261731Z 2618/2718 13008KT P6SM FEW120 FEW250
     FM270300 16006KT P6SM FEW100 SCT250
     FM271500 19008KT P6SM SCT250=



000
FTUS44 KEPZ 261700
TAFELP
TAF
KELP 261731Z 2618/2718 13008KT P6SM FEW120 FEW250
     FM270300 16006KT P6SM FEW100 SCT250
     FM271500 19008KT P6SM SCT250=



000
FTUS44 KEPZ 261700
TAFDMN
TAF
KDMN 261731Z 2618/2718 07010G20KT P6SM FEW120 FEW250
     FM262100 15008KT P6SM FEW120 FEW250
     FM270300 30006KT P6SM FEW100 SCT250
     FM271500 18008KT P6SM SCT250=



000
FTUS44 KEPZ 261700
TAFTCS
TAF
KTCS 261731Z 2618/2718 07008KT P6SM FEW120 FEW250
     FM270000 23007KT P6SM FEW120 FEW250
     FM270600 29006KT P6SM FEW100 SCT250=



000
FTUS44 KEPZ 261500 AAA
TAFELP
TAF AMD
KELP 261529Z 2615/2712 34010KT P6SM FEW120 SCT250
     FM261700 07011KT P6SM SCT100 SCT200
     FM270300 18005KT P6SM FEW250=



000
FTUS44 KEPZ 261500 AAA
TAFDMN
TAF AMD
KDMN 261528Z 2615/2712 07013KT P6SM FEW120 SCT250
     FM261700 07009KT P6SM FEW250
     FM270300 27003KT P6SM FEW250=



000
FTUS44 KEPZ 261500 AAA
TAFDMN
TAF AMD
KDMN 261528Z 2615/2712 07013KT P6SM FEW120 SCT250
     FM261700 07009KT P6SM FEW250
     FM270300 27003KT P6SM FEW250=



000
FTUS44 KEPZ 261500 AAA
TAFTCS
TAF AMD
KTCS 261527Z 2615/2712 02018G25KT P6SM SCT150 SCT250
     FM261800 03009KT P6SM FEW250
     FM270300 28007KT P6SM FEW250=



000
FTUS44 KEPZ 261100
TAFTCS
TAF
KTCS 261136Z 2612/2712 02018G28KT P6SM SCT150 SCT250
     FM261500 03009KT P6SM FEW250
     FM270300 28007KT P6SM FEW250=



000
FTUS44 KEPZ 261100
TAFDMN
TAF
KDMN 261136Z 2612/2712 03013G23KT P6SM FEW120 SCT250
     FM261700 07009KT P6SM FEW250
     FM270300 27003KT P6SM FEW250=



000
FTUS44 KEPZ 261100
TAFELP
TAF
KELP 261136Z 2612/2712 03015G25KT P6SM FEW120 SCT250
     FM261700 07011KT P6SM SCT100 SCT200
     FM270300 18005KT P6SM FEW250=



000
FTUS44 KEPZ 261100
TAFTCS
TAF
KTCS 261136Z 2612/2712 02018G28KT P6SM SCT150 SCT250
     FM261500 03009KT P6SM FEW250
     FM270300 28007KT P6SM FEW250=



000
FTUS44 KEPZ 261100
TAFDMN
TAF
KDMN 261136Z 2612/2712 03013G23KT P6SM FEW120 SCT250
     FM261700 07009KT P6SM FEW250
     FM270300 27003KT P6SM FEW250=



000
FTUS44 KEPZ 261100
TAFELP
TAF
KELP 261136Z 2612/2712 03015G25KT P6SM FEW120 SCT250
     FM261700 07011KT P6SM SCT100 SCT200
     FM270300 18005KT P6SM FEW250=



000
FTUS44 KEPZ 260500
TAFTCS
TAF
KTCS 260538Z 2606/2706 02018G28KT P6SM SCT150 SCT250
     FM261500 03009KT P6SM FEW250
     FM262000 11007KT P6SM FEW250=



000
FTUS44 KEPZ 260500
TAFDMN
TAF
KDMN 260538Z 2606/2706 29011KT P6SM FEW120 SCT250
     FM260800 02013G20KT P6SM FEW100 SCT250
     FM261300 07009KT P6SM FEW250=



000
FTUS44 KEPZ 260500
TAFTCS
TAF
KTCS 260538Z 2606/2706 02018G28KT P6SM SCT150 SCT250
     FM261500 03009KT P6SM FEW250
     FM262000 11007KT P6SM FEW250=



000
FTUS44 KEPZ 260500
TAFDMN
TAF
KDMN 260538Z 2606/2706 29011KT P6SM FEW120 SCT250
     FM260800 02013G20KT P6SM FEW100 SCT250
     FM261300 07009KT P6SM FEW250=



000
FTUS44 KEPZ 260500
TAFELP
TAF
KELP 260538Z 2606/2706 26017G20KT P6SM FEW120 SCT250
     FM260700 05015G25KT P6SM FEW120 SCT250
     FM261300 07011KT P6SM SCT100 SCT200
     FM262200 10007KT P6SM FEW250=



000
FTUS44 KEPZ 260500
TAFELP
TAF
KELP 260538Z 2606/2706 26017G20KT P6SM FEW120 SCT250
     FM260700 05015G25KT P6SM FEW120 SCT250
     FM261300 07011KT P6SM SCT100 SCT200
     FM262200 10007KT P6SM FEW250=



000
FTUS44 KEPZ 252300 RRA
TAFTCS
TAF
KTCS 252356Z 2600/2624 34011G17KT P6SM SCT150 SCT250
     FM261400 03009KT P6SM FEW250=



000
FTUS44 KEPZ 252300 RRA
TAFELP
TAF
KELP 252356Z 2600/2624 30018G25KT P6SM SCT120 SCT250
     FM261100 05009KT P6SM SCT100 SCT200=



000
FTUS44 KEPZ 252300 RRA
TAFDMN
TAF
KDMN 252356Z 2600/2624 29016G21KT P6SM SCT150 BKN250
     FM260700 06013KT P6SM FEW100 SCT250
     FM261400 060130KT P6SM FEW250=



000
FTUS44 KEPZ 252300 RRA
TAFTCS
TAF
KTCS 252356Z 2600/2624 34011G17KT P6SM SCT150 SCT250
     FM261400 03009KT P6SM FEW250=



000
FTUS44 KEPZ 252300 RRA
TAFDMN
TAF
KDMN 252356Z 2600/2624 29016G21KT P6SM SCT150 BKN250
     FM260700 06013KT P6SM FEW100 SCT250
     FM261400 060130KT P6SM FEW250=



000
FTUS44 KEPZ 252300 RRA
TAFELP
TAF
KELP 252356Z 2600/2624 30018G25KT P6SM SCT120 SCT250
     FM261100 05009KT P6SM SCT100 SCT200=



000
FTUS44 KEPZ 251700
TAFELP
TAF
KELP 251723Z 2518/2618 27015G25KT P6SM SCT150 BKN250
     FM260300 32010KT P6SM SCT100 SCT250
     FM260800 06011KT P6SM SCT100 SCT200
     FM261600 08008KT P6SM FEW100=



000
FTUS44 KEPZ 251700
TAFDMN
TAF
KDMN 251723Z 2518/2618 28018G28KT P6SM SCT150 BKN250
     FM260200 30010KT P6SM FEW100 SCT250
     FM260600 04012G22KT P6SM FEW100 SCT200
     FM261400 08010KT P6SM FEW250=



000
FTUS44 KEPZ 251700
TAFTCS
TAF
KTCS 251723Z 2518/2618 32011KT P6SM SCT150 SCT250
     FM260100 35008KT P6SM SCT090 SCT200
     FM260500 02013G25KT P6SM FEW150 SCT250
     FM261400 03007KT P6SM FEW250=



000
FTUS44 KEPZ 251700
TAFELP
TAF
KELP 251723Z 2518/2618 27015G25KT P6SM SCT150 BKN250
     FM260300 32010KT P6SM SCT100 SCT250
     FM260800 06011KT P6SM SCT100 SCT200
     FM261600 08008KT P6SM FEW100=



000
FTUS44 KEPZ 251700
TAFTCS
TAF
KTCS 251723Z 2518/2618 32011KT P6SM SCT150 SCT250
     FM260100 35008KT P6SM SCT090 SCT200
     FM260500 02013G25KT P6SM FEW150 SCT250
     FM261400 03007KT P6SM FEW250=



000
FTUS44 KEPZ 251700
TAFDMN
TAF
KDMN 251723Z 2518/2618 28018G28KT P6SM SCT150 BKN250
     FM260200 30010KT P6SM FEW100 SCT250
     FM260600 04012G22KT P6SM FEW100 SCT200
     FM261400 08010KT P6SM FEW250=



000
FTUS44 KEPZ 251100 RRA
TAFELP
TAF
KELP 251151Z 2512/2612 25010KT P6SM FEW250
     FM251800 26015G25KT P6SM FEW150 SCT250
     FM260300 29008KT P6SM BKN250
     FM260900 04015KT P6SM BKN250=



000
FTUS44 KEPZ 251100 RRA
TAFDMN
TAF
KDMN 251151Z 2512/2612 23006KT P6SM FEW250
     FM251700 28018G28KT P6SM FEW150 SCT250
     FM260300 29010KT P6SM BKN250
     FM261100 04012KT P6SM BKN250=



000
FTUS44 KEPZ 251100 RRA
TAFDMN
TAF
KDMN 251151Z 2512/2612 23006KT P6SM FEW250
     FM251700 28018G28KT P6SM FEW150 SCT250
     FM260300 29010KT P6SM BKN250
     FM261100 04012KT P6SM BKN250=



000
FTUS44 KEPZ 251100 RRA
TAFTCS
TAF
KTCS 251151Z 2512/2612 31010KT P6SM FEW250
     FM251800 29014G24KT P6SM FEW140 SCT250
     FM260100 31008KT P6SM BKN250
     FM260600 01010KT P6SM BKN250=



000
FTUS44 KEPZ 251100 RRA
TAFELP
TAF
KELP 251151Z 2512/2612 25010KT P6SM FEW250
     FM251800 26015G25KT P6SM FEW150 SCT250
     FM260300 29008KT P6SM BKN250
     FM260900 04015KT P6SM BKN250=



000
FTUS44 KEPZ 251100 RRA
TAFTCS
TAF
KTCS 251151Z 2512/2612 31010KT P6SM FEW250
     FM251800 29014G24KT P6SM FEW140 SCT250
     FM260100 31008KT P6SM BKN250
     FM260600 01010KT P6SM BKN250=



000
FTUS44 KEPZ 250500
TAFELP
TAF
KELP 250529Z 2506/2606 25011KT P6SM FEW250
     FM251700 26019G26KT P6SM FEW150 SCT250=



000
FTUS44 KEPZ 250500
TAFDMN
TAF
KDMN 250529Z 2506/2606 29006KT P6SM FEW250
     FM251700 28020G30KT P6SM FEW150 SCT250=



000
FTUS44 KEPZ 250500
TAFTCS
TAF
KTCS 250529Z 2506/2606 26013KT P6SM FEW250
     FM251600 33010KT P6SM FEW140 SCT250
     FM251900 34010G21KT P6SM FEW140 SCT250=



000
FTUS44 KEPZ 250500
TAFDMN
TAF
KDMN 250520Z 2506/2606 29006KT P6SM FEW250
     FM251700 28020G30KT P6SM FEW150 SCT250=



000
FTUS44 KEPZ 250500
TAFELP
TAF
KELP 250520Z 2506/2606 25011KT P6SM FEW250
     FM251700 26019G26KT P6SM FEW150 SCT250=



000
FTUS44 KEPZ 250500
TAFTCS
TAF
KTCS 250520Z 2506/2606 26013KT P6SM FEW250
     FM251600 33010KT P6SM FEW140 SCT250
     FM251900 34010G21KT P6SM FEW140 SCT250=



000
FTUS44 KEPZ 250500
TAFDMN
TAF
KDMN 250520Z 2506/2606 29006KT P6SM FEW250
     FM251700 28020G30KT P6SM FEW150 SCT250=



000
FTUS44 KEPZ 250500
TAFELP
TAF
KELP 250520Z 2506/2606 25011KT P6SM FEW250
     FM251700 26019G26KT P6SM FEW150 SCT250=



000
FTUS44 KEPZ 250500
TAFTCS
TAF
KTCS 250520Z 2506/2606 26013KT P6SM FEW250
     FM251600 33010KT P6SM FEW140 SCT250
     FM251900 34010G21KT P6SM FEW140 SCT250=



    US Dept of Commerce
    National Oceanic and Atmospheric Administration
    National Weather Service
    1325 East West Highway
    Silver Spring, MD 20910
    Page Author: NWS Internet Services Team
Disclaimer
Information Quality
Credits
Glossary
Privacy Policy
Freedom of Information Act (FOIA)
About Us
Career Opportunities